createdAt,value
2023-01-09T15:27:14.314Z,102191.30
2023-01-09T15:29:41.360Z,102181.48
2023-01-09T15:32:12.605Z,102177.41
2023-01-09T15:34:39.757Z,102178.48
2023-01-09T15:37:34.937Z,102180.79
2023-01-09T15:40:04.506Z,102180.48
2023-01-09T15:43:00.713Z,102171.47
2023-01-09T15:45:29.026Z,102174.27
2023-01-09T15:47:56.835Z,102174.45
2023-01-09T15:50:28.218Z,102166.13
2023-01-09T15:52:55.542Z,102169.09
2023-01-09T15:55:26.330Z,102165.62
2023-01-09T15:57:54.342Z,102159.20
2023-01-09T16:00:41.112Z,102150.52
2023-01-09T16:03:16.633Z,102148.44
2023-01-09T16:05:44.668Z,102148.27
2023-01-09T16:08:39.889Z,102144.27
2023-01-09T16:11:10.862Z,102139.95
2023-01-09T16:13:42.980Z,102133.00
2023-01-09T16:16:09.881Z,102139.07
2023-01-09T16:18:38.814Z,102134.39
2023-01-09T16:21:12.004Z,102138.21
2023-01-09T16:23:41.920Z,102132.64
2023-01-09T16:26:13.390Z,102131.24
2023-01-09T16:28:41.951Z,102132.13
2023-01-09T16:31:25.984Z,102129.87
2023-01-09T16:33:56.014Z,102124.66
2023-01-09T16:36:25.315Z,102120.31
2023-01-09T16:38:53.898Z,102117.38
2023-01-09T16:41:40.458Z,102113.20
2023-01-09T16:44:09.165Z,102113.02
2023-01-09T16:46:41.169Z,102109.04
2023-01-09T16:49:28.163Z,102112.16
2023-01-09T16:51:56.541Z,102118.07
2023-01-09T16:54:23.807Z,102118.77
2023-01-09T16:56:52.277Z,102115.98
2023-01-09T16:59:25.073Z,102117.02
2023-01-09T17:01:53.046Z,102116.16
2023-01-09T17:04:23.199Z,102116.52
2023-01-09T17:06:50.248Z,102110.78
2023-01-09T17:09:18.596Z,102102.62
2023-01-09T17:11:45.720Z,102106.44
2023-01-09T17:14:13.182Z,102098.27
2023-01-09T17:16:46.242Z,102098.45
2023-01-09T17:19:18.539Z,102099.50
2023-01-09T17:21:45.681Z,102100.53
2023-01-09T17:24:31.260Z,102102.45
2023-01-09T17:27:17.150Z,102097.59
2023-01-09T17:29:44.407Z,102098.45
2023-01-09T17:32:16.356Z,102098.98
2023-01-09T17:34:43.739Z,102097.23
2023-01-09T17:37:17.980Z,102090.30
2023-01-09T17:39:45.727Z,102093.77
2023-01-09T17:42:13.150Z,102098.64
2023-01-09T17:44:40.200Z,102094.13
2023-01-09T17:47:14.817Z,102091.69
2023-01-09T17:49:41.906Z,102089.95
2023-01-09T17:52:09.017Z,102092.90
2023-01-09T17:54:36.168Z,102092.73
2023-01-09T17:57:03.047Z,102091.70
2023-01-09T17:59:30.471Z,102093.23
2023-01-09T18:01:57.700Z,102092.38
2023-01-09T18:04:25.070Z,102093.08
2023-01-09T18:06:54.078Z,102098.11
2023-01-09T18:09:21.425Z,102096.02
2023-01-09T18:11:48.462Z,102100.01
2023-01-09T18:14:17.144Z,102090.11
2023-01-09T18:16:44.844Z,102087.16
2023-01-09T18:19:12.475Z,102086.82
2023-01-09T18:21:39.957Z,102093.05
2023-01-09T18:24:08.305Z,102083.17
2023-01-09T18:26:36.583Z,102085.44
2023-01-09T18:29:03.746Z,102092.20
2023-01-09T18:31:30.863Z,102088.03
2023-01-09T18:34:01.825Z,102086.48
2023-01-09T18:36:29.492Z,102082.30
2023-01-09T18:39:01.047Z,102082.48
2023-01-09T18:41:28.499Z,102078.84
2023-01-09T18:43:57.139Z,102076.92
2023-01-09T18:46:24.939Z,102077.27
2023-01-09T18:48:59.885Z,102080.23
2023-01-09T18:51:27.649Z,102081.45
2023-01-09T18:53:55.059Z,102079.02
2023-01-09T18:56:23.000Z,102074.84
2023-01-09T18:58:53.793Z,102073.11
2023-01-09T19:01:20.784Z,102070.66
2023-01-09T19:03:51.013Z,102068.08
2023-01-09T19:06:18.410Z,102060.27
2023-01-09T19:08:46.000Z,102058.19
2023-01-09T19:11:13.124Z,102055.05
2023-01-09T19:13:40.214Z,102057.50
2023-01-09T19:16:07.909Z,102056.62
2023-01-09T19:18:39.294Z,102054.20
2023-01-09T19:21:11.103Z,102055.41
2023-01-09T19:23:38.406Z,102056.45
2023-01-09T19:26:10.128Z,102054.36
2023-01-09T19:28:38.525Z,102050.55
2023-01-09T19:31:05.795Z,102051.07
2023-01-09T19:33:33.131Z,102054.02
2023-01-09T19:36:00.334Z,102050.90
2023-01-09T19:38:27.453Z,102050.90
2023-01-09T19:40:54.477Z,102050.55
2023-01-09T19:43:27.356Z,102049.34
2023-01-09T19:45:55.193Z,102041.89
2023-01-09T19:48:23.194Z,102040.66
2023-01-09T19:50:50.346Z,102043.27
2023-01-09T19:53:18.005Z,102039.63
2023-01-09T19:55:46.177Z,102035.30
2023-01-09T19:58:13.544Z,102032.17
2023-01-09T20:00:40.584Z,102027.67
2023-01-09T20:03:07.645Z,102023.16
2023-01-09T20:05:35.286Z,102029.59
2023-01-09T20:08:05.819Z,102026.48
2023-01-09T20:10:33.273Z,102031.50
2023-01-09T20:13:00.525Z,102036.70
2023-01-09T20:15:27.595Z,102029.77
2023-01-09T20:17:55.549Z,102025.79
2023-01-09T20:20:22.691Z,102025.95
2023-01-09T20:22:49.836Z,102025.96
2023-01-09T20:25:16.786Z,102037.24
2023-01-09T20:27:44.035Z,102040.19
2023-01-09T20:30:11.793Z,102038.28
2023-01-09T20:32:39.174Z,102042.09
2023-01-09T20:35:07.341Z,102042.97
2023-01-09T20:37:34.889Z,102045.91
2023-01-09T20:40:02.446Z,102048.34
2023-01-09T20:42:30.558Z,102051.11
2023-01-09T20:44:57.766Z,102045.91
2023-01-09T20:47:25.530Z,102043.14
2023-01-09T20:49:52.679Z,102044.18
2023-01-09T20:52:22.181Z,102039.33
2023-01-09T20:54:49.349Z,102041.75
2023-01-09T20:57:19.659Z,102043.31
2023-01-09T20:59:47.156Z,102050.92
2023-01-09T21:02:14.467Z,102048.46
2023-01-09T21:04:41.511Z,102048.29
2023-01-09T21:07:10.409Z,102045.17
2023-01-09T21:09:37.448Z,102041.18
2023-01-09T21:12:24.262Z,102041.01
2023-01-09T21:14:51.308Z,102040.31
2023-01-09T21:17:18.465Z,102040.65
2023-01-09T21:19:45.912Z,102044.48
2023-01-09T21:22:13.059Z,102047.25
2023-01-09T21:24:40.312Z,102042.58
2023-01-09T21:27:07.256Z,102039.27
2023-01-09T21:29:34.404Z,102034.77
2023-01-09T21:32:02.136Z,102029.40
2023-01-09T21:34:29.522Z,102027.66
2023-01-09T21:36:56.494Z,102031.48
2023-01-09T21:39:23.926Z,102030.27
2023-01-09T21:42:10.153Z,102035.48
2023-01-09T21:44:56.326Z,102031.67
2023-01-09T21:47:23.571Z,102027.71
2023-01-09T21:49:50.820Z,102026.65
2023-01-09T21:52:20.636Z,102023.20
2023-01-09T21:54:47.912Z,102018.69
2023-01-09T21:57:15.339Z,102019.55
2023-01-09T21:59:43.108Z,102021.29
2023-01-09T22:02:13.839Z,102023.02
2023-01-09T22:04:42.524Z,102023.20
2023-01-09T22:07:09.975Z,102017.30
2023-01-09T22:09:37.229Z,102019.21
2023-01-09T22:12:04.381Z,102012.96
2023-01-09T22:14:31.735Z,102009.16
2023-01-09T22:16:58.780Z,102011.05
2023-01-09T22:19:28.061Z,101999.79
2023-01-09T22:21:55.240Z,101996.50
2023-01-09T22:24:25.459Z,101997.54
2023-01-09T22:26:52.519Z,101993.02
2023-01-09T22:29:21.386Z,101986.09
2023-01-09T22:31:48.897Z,101990.08
2023-01-09T22:34:17.732Z,101985.05
2023-01-09T22:36:45.467Z,101982.27
2023-01-09T22:39:13.780Z,101983.11
2023-01-09T22:41:41.036Z,101985.54
2023-01-09T22:44:11.557Z,101986.23
2023-01-09T22:46:38.599Z,101982.24
2023-01-09T22:49:07.092Z,101980.50
2023-01-09T22:51:34.535Z,101973.40
2023-01-09T22:54:01.395Z,101968.71
2023-01-09T22:56:31.835Z,101963.34
2023-01-09T22:59:00.386Z,101963.86
2023-01-09T23:01:27.638Z,101958.83
2023-01-09T23:03:54.790Z,101956.58
2023-01-09T23:06:22.554Z,101951.73
2023-01-09T23:08:50.226Z,101947.74
2023-01-09T23:11:44.703Z,101946.88
2023-01-09T23:14:12.060Z,101949.83
2023-01-09T23:16:39.786Z,101946.88
2023-01-09T23:19:13.935Z,101943.75
2023-01-09T23:21:41.636Z,101934.75
2023-01-09T23:24:08.755Z,101933.21
2023-01-09T23:26:38.251Z,101931.64
2023-01-09T23:29:07.245Z,101929.04
2023-01-09T23:31:35.344Z,101930.95
2023-01-09T23:34:02.978Z,101930.25
2023-01-09T23:36:30.472Z,101930.95
2023-01-09T23:38:59.112Z,101933.52
2023-01-09T23:41:44.693Z,101931.98
2023-01-09T23:44:12.059Z,101927.80
2023-01-09T23:46:39.300Z,101926.59
2023-01-09T23:49:06.345Z,101921.38
2023-01-09T23:51:34.013Z,101917.75
2023-01-09T23:54:01.566Z,101916.00
2023-01-09T23:56:30.765Z,101912.38
2023-01-09T23:59:00.987Z,101913.58
